createdAt,value
2018-09-26T00:00:25.101Z,79.20
2018-09-26T00:03:01.693Z,78.70
2018-09-26T00:05:30.829Z,78.50
2018-09-26T00:07:59.497Z,79.00
2018-09-26T00:10:28.100Z,78.70
2018-09-26T00:12:56.728Z,78.20
2018-09-26T00:15:25.160Z,78.10
2018-09-26T00:17:53.794Z,78.60
2018-09-26T00:20:22.433Z,78.90
2018-09-26T00:22:55.368Z,79.10
2018-09-26T00:25:23.676Z,78.40
2018-09-26T00:27:52.432Z,78.80
2018-09-26T00:30:20.986Z,78.50
2018-09-26T00:32:49.652Z,79.70
2018-09-26T00:35:19.504Z,79.10
2018-09-26T00:37:48.431Z,78.60
2018-09-26T00:40:17.712Z,78.50
2018-09-26T00:42:46.432Z,78.30
2018-09-26T00:45:14.957Z,79.30
2018-09-26T00:47:46.663Z,78.40
2018-09-26T00:50:15.325Z,78.80
2018-09-26T00:52:45.031Z,78.80
2018-09-26T00:55:13.440Z,78.80
2018-09-26T00:57:41.973Z,78.80
2018-09-26T01:00:13.604Z,78.90
2018-09-26T01:02:42.320Z,79.10
2018-09-26T01:05:11.028Z,78.90
2018-09-26T01:07:40.168Z,78.60
2018-09-26T01:10:08.517Z,79.70
2018-09-26T01:12:37.025Z,79.80
2018-09-26T01:15:05.853Z,79.30
2018-09-26T01:17:34.470Z,79.90
2018-09-26T01:20:03.076Z,79.20
2018-09-26T01:22:31.588Z,79.20
2018-09-26T01:25:00.308Z,78.90
2018-09-26T01:27:32.922Z,79.40
2018-09-26T01:30:03.998Z,80.90
2018-09-26T01:32:33.235Z,79.40
2018-09-26T01:35:02.372Z,79.60
2018-09-26T01:37:33.544Z,78.90
2018-09-26T01:40:02.157Z,79.40
2018-09-26T01:42:30.579Z,79.80
2018-09-26T01:45:00.393Z,80.40
2018-09-26T01:47:28.761Z,78.90
2018-09-26T01:49:57.384Z,79.70
2018-09-26T01:52:26.091Z,79.40
2018-09-26T01:54:54.917Z,79.60
2018-09-26T01:57:23.521Z,80.00
2018-09-26T01:59:52.116Z,80.10
2018-09-26T02:02:20.751Z,79.90
2018-09-26T02:04:49.377Z,79.40
2018-09-26T02:07:17.980Z,79.50
2018-09-26T02:09:46.707Z,79.50
2018-09-26T02:12:15.375Z,79.90
2018-09-26T02:14:45.271Z,79.90
2018-09-26T02:17:13.618Z,80.20
2018-09-26T02:19:42.251Z,80.20
2018-09-26T02:22:10.958Z,80.70
2018-09-26T02:24:39.589Z,80.60
2018-09-26T02:28:32.603Z,80.30
2018-09-26T02:31:01.865Z,81.00
2018-09-26T02:33:30.480Z,80.50
2018-09-26T02:35:59.174Z,80.70
2018-09-26T02:38:28.796Z,81.00
2018-09-26T02:40:57.376Z,81.10
2018-09-26T02:43:25.909Z,80.30
2018-09-26T02:45:54.876Z,80.30
2018-09-26T02:48:28.917Z,80.90
2018-09-26T02:50:57.926Z,81.80
2018-09-26T02:53:26.465Z,81.00
2018-09-26T02:55:55.600Z,81.00
2018-09-26T02:58:23.838Z,80.90
2018-09-26T03:00:53.348Z,80.70
2018-09-26T03:03:22.070Z,80.80
2018-09-26T03:05:50.617Z,80.50
2018-09-26T03:08:19.237Z,80.90
2018-09-26T03:10:48.827Z,81.30
2018-09-26T03:13:17.294Z,80.70
2018-09-26T03:15:46.059Z,81.00
2018-09-26T03:18:17.830Z,80.60
2018-09-26T03:20:46.675Z,80.80
2018-09-26T03:23:15.505Z,80.20
2018-09-26T03:25:45.283Z,80.60
2018-09-26T03:28:13.912Z,80.50
2018-09-26T03:30:42.750Z,80.30
2018-09-26T03:33:11.221Z,80.50
2018-09-26T03:35:39.841Z,81.10
2018-09-26T03:38:08.669Z,80.50
2018-09-26T03:40:37.466Z,80.70
2018-09-26T03:43:06.191Z,80.70
2018-09-26T03:45:34.800Z,80.50
2018-09-26T03:48:03.545Z,80.40
2018-09-26T03:50:32.160Z,80.30
2018-09-26T03:53:00.684Z,80.70
2018-09-26T03:55:29.464Z,80.90
2018-09-26T03:57:58.104Z,81.40
2018-09-26T04:00:26.640Z,81.50
2018-09-26T04:02:55.208Z,81.10
2018-09-26T04:05:23.943Z,81.20
2018-09-26T04:07:52.551Z,81.30
2018-09-26T04:10:21.276Z,81.30
2018-09-26T04:12:50.123Z,81.50
2018-09-26T04:15:18.353Z,81.60
2018-09-26T04:17:47.129Z,81.70
2018-09-26T04:20:15.766Z,82.50
2018-09-26T04:22:44.388Z,81.30
2018-09-26T04:25:13.334Z,81.80
2018-09-26T04:27:41.853Z,81.70
2018-09-26T04:30:10.528Z,81.10
2018-09-26T04:32:39.289Z,81.60
2018-09-26T04:35:07.873Z,81.50
2018-09-26T04:37:36.572Z,81.10
2018-09-26T04:40:05.413Z,81.50
2018-09-26T04:42:34.274Z,81.40
2018-09-26T04:45:02.786Z,82.00
2018-09-26T04:48:55.900Z,81.20
2018-09-26T04:51:25.332Z,81.90
2018-09-26T04:53:53.875Z,81.60
2018-09-26T04:56:22.589Z,81.90
2018-09-26T04:58:51.233Z,81.90
2018-09-26T05:01:19.868Z,82.10
2018-09-26T05:03:48.810Z,81.90
2018-09-26T05:06:17.333Z,81.50
2018-09-26T05:08:46.028Z,82.10
2018-09-26T05:11:14.562Z,82.50
2018-09-26T05:13:44.500Z,82.10
2018-09-26T05:16:12.856Z,82.30
2018-09-26T05:18:41.460Z,82.70
2018-09-26T05:21:10.080Z,82.40
2018-09-26T05:23:38.919Z,82.80
2018-09-26T05:26:07.664Z,82.30
2018-09-26T05:28:35.920Z,83.00
2018-09-26T05:31:04.562Z,83.30
2018-09-26T05:33:33.196Z,83.00
2018-09-26T05:36:01.730Z,82.90
2018-09-26T05:38:31.492Z,82.70
2018-09-26T05:40:59.923Z,82.50
2018-09-26T05:43:28.745Z,83.60
2018-09-26T05:45:58.880Z,82.60
2018-09-26T05:48:30.133Z,82.90
2018-09-26T05:50:58.549Z,83.10
2018-09-26T05:53:27.482Z,83.10
2018-09-26T05:55:59.225Z,82.60
2018-09-26T05:58:27.646Z,83.30
2018-09-26T06:00:56.181Z,83.00
2018-09-26T06:03:25.472Z,82.60
2018-09-26T06:05:56.621Z,82.60
2018-09-26T06:08:28.548Z,82.60
2018-09-26T06:10:57.306Z,83.40
2018-09-26T06:13:30.214Z,83.60
2018-09-26T06:16:01.889Z,83.40
2018-09-26T06:18:31.628Z,84.60
2018-09-26T06:21:00.417Z,84.20
2018-09-26T06:23:28.868Z,83.80
2018-09-26T06:25:57.626Z,83.10
2018-09-26T06:28:26.254Z,84.20
2018-09-26T06:30:54.885Z,83.70
2018-09-26T06:33:23.575Z,83.90
2018-09-26T06:35:52.028Z,83.70
2018-09-26T06:38:21.179Z,84.40
2018-09-26T06:40:49.427Z,84.10
2018-09-26T06:43:17.958Z,83.90
2018-09-26T06:45:47.740Z,85.50
2018-09-26T06:48:17.907Z,84.60
2018-09-26T06:50:46.956Z,84.30
2018-09-26T06:53:16.100Z,84.90
2018-09-26T06:55:45.144Z,84.10
2018-09-26T06:58:13.502Z,84.50
2018-09-26T07:00:43.034Z,84.60
2018-09-26T07:03:11.660Z,84.70
2018-09-26T07:05:40.311Z,85.30
2018-09-26T07:08:09.062Z,85.20
2018-09-26T07:10:38.672Z,84.90
2018-09-26T07:13:07.316Z,85.00
2018-09-26T07:15:36.077Z,84.80
2018-09-26T07:18:04.791Z,86.10
2018-09-26T07:20:38.956Z,84.50
2018-09-26T07:23:08.134Z,84.20
2018-09-26T07:25:37.664Z,84.80
2018-09-26T07:28:06.221Z,84.40
2018-09-26T07:30:35.081Z,84.40
2018-09-26T07:33:04.441Z,84.50
2018-09-26T07:35:32.983Z,85.10
2018-09-26T07:38:01.633Z,84.70
2018-09-26T07:40:30.269Z,84.80
2018-09-26T07:42:58.902Z,84.90
2018-09-26T07:45:28.889Z,84.70
2018-09-26T07:47:57.141Z,84.80
2018-09-26T07:50:25.670Z,85.00
2018-09-26T07:52:54.554Z,84.60
2018-09-26T07:55:23.130Z,84.60
2018-09-26T07:57:52.587Z,84.40
2018-09-26T08:00:22.328Z,84.50
2018-09-26T08:02:51.250Z,84.20
2018-09-26T08:05:23.042Z,84.20
2018-09-26T08:07:51.575Z,83.90
2018-09-26T08:10:20.114Z,84.20
2018-09-26T08:12:49.053Z,84.20
2018-09-26T08:15:18.815Z,84.20
2018-09-26T08:17:47.245Z,84.10
2018-09-26T08:20:19.197Z,83.60
2018-09-26T08:22:47.652Z,83.50
2018-09-26T08:25:16.268Z,83.30
2018-09-26T08:27:44.913Z,83.20
2018-09-26T08:30:13.714Z,83.10
2018-09-26T08:32:42.129Z,82.70
2018-09-26T08:35:11.684Z,82.80
2018-09-26T08:37:43.260Z,82.90
2018-09-26T08:40:15.004Z,82.70
2018-09-26T08:42:43.676Z,82.50
2018-09-26T08:45:12.293Z,82.40
2018-09-26T08:47:40.961Z,82.30
2018-09-26T08:50:12.922Z,82.10
2018-09-26T08:52:41.237Z,82.30
2018-09-26T08:55:09.984Z,81.20
2018-09-26T08:57:38.518Z,80.30
2018-09-26T09:00:07.697Z,79.80
2018-09-26T09:02:36.741Z,79.80
2018-09-26T09:05:05.312Z,79.20
2018-09-26T09:07:33.947Z,78.70
2018-09-26T09:10:02.558Z,78.20
2018-09-26T09:12:31.443Z,78.00
2018-09-26T09:14:59.988Z,77.80
2018-09-26T09:17:29.628Z,76.60
2018-09-26T09:19:59.247Z,75.50
2018-09-26T09:22:27.785Z,76.80
2018-09-26T09:24:56.606Z,75.80
2018-09-26T09:27:26.785Z,74.30
2018-09-26T09:29:54.959Z,75.00
2018-09-26T09:32:23.580Z,73.00
2018-09-26T09:34:52.192Z,73.20
2018-09-26T09:37:21.001Z,73.60
2018-09-26T09:39:49.554Z,73.80
2018-09-26T09:42:18.266Z,73.00
2018-09-26T09:44:47.118Z,73.60
2018-09-26T09:47:18.560Z,71.40
2018-09-26T09:49:47.403Z,72.50
2018-09-26T09:52:16.118Z,72.90
2018-09-26T09:54:44.832Z,70.90
2018-09-26T09:57:14.491Z,70.00
2018-09-26T09:59:43.373Z,71.50
2018-09-26T10:02:12.656Z,68.00
2018-09-26T10:04:41.178Z,71.20
2018-09-26T10:08:46.911Z,70.80
2018-09-26T10:11:15.836Z,71.40
2018-09-26T10:13:44.698Z,70.00
2018-09-26T10:16:14.212Z,69.00
2018-09-26T10:18:43.321Z,70.00
2018-09-26T10:21:13.694Z,70.30
2018-09-26T10:23:41.966Z,68.40
2018-09-26T10:26:10.929Z,68.40
2018-09-26T10:28:42.445Z,68.00
2018-09-26T10:31:11.609Z,68.50
2018-09-26T10:33:40.065Z,68.30
2018-09-26T10:36:08.884Z,67.80
2018-09-26T10:38:37.617Z,68.00
2018-09-26T10:41:06.270Z,68.60
2018-09-26T10:43:36.081Z,66.50
2018-09-26T10:46:04.716Z,66.50
2018-09-26T10:48:33.546Z,65.80
2018-09-26T10:51:02.280Z,66.90
2018-09-26T10:53:31.732Z,67.10
2018-09-26T10:56:00.769Z,67.40
2018-09-26T10:58:29.136Z,65.60
2018-09-26T11:00:57.744Z,66.10
2018-09-26T11:03:26.636Z,66.20
2018-09-26T11:05:54.980Z,66.70
2018-09-26T11:08:23.541Z,66.40
2018-09-26T11:10:52.047Z,64.00
2018-09-26T11:13:20.740Z,64.80
2018-09-26T11:15:49.508Z,64.10
2018-09-26T11:18:18.158Z,63.80
2018-09-26T11:20:48.233Z,64.90
2018-09-26T11:23:16.609Z,66.10
2018-09-26T11:25:45.257Z,66.60
2018-09-26T11:28:14.351Z,65.60
2018-09-26T11:30:43.563Z,63.70
2018-09-26T11:33:12.186Z,64.70
2018-09-26T11:35:40.660Z,63.80
2018-09-26T11:38:09.538Z,64.10
2018-09-26T11:40:38.254Z,63.70
2018-09-26T11:43:06.820Z,64.70
2018-09-26T11:45:35.505Z,63.80
2018-09-26T11:48:04.356Z,63.80
2018-09-26T11:50:33.389Z,65.30
2018-09-26T11:53:02.092Z,65.50
2018-09-26T11:55:30.834Z,65.20
2018-09-26T11:57:59.356Z,64.40
2018-09-26T12:00:28.202Z,63.50
2018-09-26T12:02:56.923Z,63.80
2018-09-26T12:05:25.770Z,65.00
2018-09-26T12:07:54.200Z,64.50
2018-09-26T12:10:23.593Z,63.90
2018-09-26T12:12:52.380Z,63.90
2018-09-26T12:15:21.165Z,62.00
2018-09-26T12:17:50.974Z,63.30
2018-09-26T12:20:19.574Z,63.40
2018-09-26T12:22:48.021Z,63.50
2018-09-26T12:25:16.654Z,63.70
2018-09-26T12:27:45.837Z,62.60
2018-09-26T12:30:14.431Z,61.70
2018-09-26T12:32:44.716Z,62.50
2018-09-26T12:35:14.096Z,62.30
2018-09-26T12:37:42.788Z,62.50
2018-09-26T12:40:11.270Z,62.00
2018-09-26T12:42:39.962Z,61.70
2018-09-26T12:45:08.450Z,61.60
2018-09-26T12:47:37.396Z,61.30
2018-09-26T12:52:32.330Z,61.90
2018-09-26T12:55:01.340Z,61.70
2018-09-26T12:57:30.184Z,59.30
2018-09-26T12:59:58.840Z,60.20
2018-09-26T13:02:27.681Z,59.00
2018-09-26T13:04:56.387Z,60.90
2018-09-26T13:07:25.237Z,61.30
2018-09-26T13:09:54.199Z,59.50
2018-09-26T13:12:22.644Z,58.00
2018-09-26T13:14:51.549Z,59.30
2018-09-26T13:17:20.285Z,60.10
2018-09-26T13:19:48.968Z,61.30
2018-09-26T13:22:17.571Z,57.90
2018-09-26T13:24:46.384Z,59.30
2018-09-26T13:27:15.073Z,57.60
2018-09-26T13:29:43.803Z,58.10
2018-09-26T13:32:12.584Z,59.10
2018-09-26T13:34:41.225Z,59.80
2018-09-26T13:37:10.052Z,59.40
2018-09-26T13:39:38.633Z,59.40
2018-09-26T13:42:08.430Z,59.40
2018-09-26T13:44:37.105Z,60.30
2018-09-26T13:47:05.936Z,60.60
2018-09-26T13:49:34.619Z,61.00
2018-09-26T13:52:03.280Z,61.20
2018-09-26T13:54:32.166Z,60.30
2018-09-26T13:57:00.790Z,60.90
2018-09-26T13:59:29.432Z,61.40
2018-09-26T14:01:58.057Z,62.80
2018-09-26T14:04:26.814Z,60.30
2018-09-26T14:06:56.548Z,59.80
2018-09-26T14:09:24.978Z,60.90
2018-09-26T14:11:53.732Z,60.40
2018-09-26T14:14:22.372Z,60.70
2018-09-26T14:16:51.000Z,61.10
2018-09-26T14:19:19.630Z,60.40
2018-09-26T14:21:48.460Z,62.30
2018-09-26T14:24:17.114Z,62.20
2018-09-26T14:26:45.909Z,61.50
2018-09-26T14:29:14.729Z,61.20
2018-09-26T14:31:43.329Z,59.60
2018-09-26T14:34:11.877Z,59.60
2018-09-26T14:36:40.643Z,60.40
2018-09-26T14:39:09.588Z,60.80
2018-09-26T14:41:38.045Z,60.50
2018-09-26T14:44:06.766Z,62.00
2018-09-26T14:46:35.449Z,60.60
2018-09-26T14:49:04.687Z,61.40
2018-09-26T14:51:33.651Z,61.50
2018-09-26T14:54:02.248Z,60.60
2018-09-26T14:56:30.906Z,61.30
2018-09-26T14:58:59.669Z,60.30
2018-09-26T15:01:28.293Z,61.50
2018-09-26T15:03:56.924Z,60.40
2018-09-26T15:06:26.007Z,59.90
2018-09-26T15:08:55.941Z,61.20
2018-09-26T15:11:24.523Z,62.00
2018-09-26T15:13:53.371Z,61.20
2018-09-26T15:16:22.264Z,61.50
2018-09-26T15:19:54.095Z,61.60
2018-09-26T15:22:22.659Z,61.40
2018-09-26T15:24:51.531Z,62.30
2018-09-26T15:27:20.320Z,62.30
2018-09-26T15:29:51.857Z,63.40
2018-09-26T15:32:21.708Z,63.40
2018-09-26T15:34:50.253Z,63.50
2018-09-26T15:37:18.965Z,62.10
2018-09-26T15:39:47.806Z,63.10
2018-09-26T15:42:16.770Z,62.10
2018-09-26T15:44:45.378Z,63.90
2018-09-26T15:47:14.233Z,63.90
2018-09-26T15:49:48.711Z,63.20
2018-09-26T15:52:18.380Z,63.60
2018-09-26T15:54:46.887Z,64.90
2018-09-26T15:57:15.612Z,64.20
2018-09-26T15:59:44.413Z,64.20
2018-09-26T16:02:13.187Z,63.40
2018-09-26T16:04:44.856Z,63.80
2018-09-26T16:07:14.240Z,66.50
2018-09-26T16:09:42.459Z,64.70
2018-09-26T16:12:11.070Z,64.20
2018-09-26T16:14:39.856Z,64.00
2018-09-26T16:19:46.324Z,65.30
2018-09-26T16:22:14.889Z,65.90
2018-09-26T16:24:43.583Z,65.70
2018-09-26T16:27:13.753Z,65.70
2018-09-26T16:29:43.137Z,65.90
2018-09-26T16:32:11.905Z,66.50
2018-09-26T16:34:41.524Z,66.80
2018-09-26T16:37:10.309Z,67.30
2018-09-26T16:39:38.993Z,67.60
2018-09-26T16:42:07.845Z,67.90
2018-09-26T16:44:36.445Z,68.40
2018-09-26T16:47:05.374Z,68.50
2018-09-26T16:49:34.464Z,68.80
2018-09-26T16:52:03.141Z,69.00
2018-09-26T16:54:31.929Z,69.30
2018-09-26T16:57:00.744Z,69.30
2018-09-26T16:59:29.716Z,69.30
2018-09-26T17:01:58.532Z,69.40
2018-09-26T17:04:27.441Z,69.90
2018-09-26T17:06:56.260Z,69.70
2018-09-26T17:09:24.789Z,69.90
2018-09-26T17:11:53.349Z,70.30
2018-09-26T17:14:21.956Z,70.70
2018-09-26T17:16:50.977Z,71.00
2018-09-26T17:19:19.446Z,71.60
2018-09-26T17:21:48.418Z,70.90
2018-09-26T17:24:17.520Z,71.60
2018-09-26T17:26:45.947Z,72.20
2018-09-26T17:29:14.356Z,72.20
2018-09-26T17:31:43.060Z,72.10
2018-09-26T17:34:11.836Z,72.60
2018-09-26T17:36:40.497Z,73.00
2018-09-26T17:39:09.717Z,73.30
2018-09-26T17:41:38.024Z,73.50
2018-09-26T17:44:07.033Z,73.80
2018-09-26T17:46:35.564Z,73.80
2018-09-26T17:49:06.210Z,74.30
2018-09-26T17:51:35.417Z,74.20
2018-09-26T17:54:04.219Z,74.70
2018-09-26T17:56:33.276Z,76.20
2018-09-26T17:59:02.105Z,74.50
2018-09-26T18:01:30.797Z,74.50
2018-09-26T18:03:59.477Z,74.80
2018-09-26T18:06:28.422Z,76.60
2018-09-26T18:08:57.440Z,77.00
2018-09-26T18:11:26.032Z,75.30
2018-09-26T18:13:54.733Z,76.30
2018-09-26T18:16:23.671Z,75.50
2018-09-26T18:18:52.380Z,75.60
2018-09-26T18:21:21.292Z,75.20
2018-09-26T18:23:49.916Z,75.50
2018-09-26T18:28:53.765Z,75.90
2018-09-26T18:31:22.269Z,76.30
2018-09-26T18:33:51.106Z,77.10
2018-09-26T18:36:19.832Z,76.80
2018-09-26T18:38:48.456Z,76.00
2018-09-26T18:41:17.452Z,76.80
2018-09-26T18:43:47.340Z,76.80
2018-09-26T18:46:17.310Z,76.50
2018-09-26T18:48:47.180Z,77.60
2018-09-26T18:51:16.435Z,77.70
2018-09-26T18:53:45.487Z,76.80
2018-09-26T18:56:16.113Z,78.00
2018-09-26T18:58:45.652Z,76.90
2018-09-26T19:01:14.177Z,77.70
2018-09-26T19:03:42.963Z,77.60
2018-09-26T19:06:11.563Z,78.20
2018-09-26T19:08:40.693Z,77.70
2018-09-26T19:11:09.459Z,77.50
2018-09-26T19:13:38.008Z,78.50
2018-09-26T19:16:06.866Z,79.30
2018-09-26T19:23:48.257Z,79.90
2018-09-26T19:26:16.812Z,79.80
2018-09-26T19:28:45.643Z,79.60
2018-09-26T19:31:14.073Z,78.70
2018-09-26T19:33:43.187Z,79.00
2018-09-26T19:36:12.653Z,80.10
2018-09-26T19:38:40.972Z,80.10
2018-09-26T19:41:13.851Z,80.00
2018-09-26T19:50:40.608Z,80.70
2018-09-26T19:53:09.327Z,79.80
2018-09-26T19:55:38.061Z,80.50
2018-09-26T19:58:06.777Z,81.20
2018-09-26T20:00:35.429Z,81.00
2018-09-26T20:03:04.689Z,82.00
2018-09-26T20:05:33.730Z,82.60
2018-09-26T20:08:02.623Z,83.20
2018-09-26T20:10:31.877Z,81.30
2018-09-26T20:13:01.786Z,81.60
2018-09-26T20:15:30.876Z,83.30
2018-09-26T20:17:59.896Z,82.60
2018-09-26T20:20:29.621Z,81.50
2018-09-26T20:22:57.995Z,80.80
2018-09-26T20:25:26.470Z,80.10
2018-09-26T20:27:55.217Z,79.90
2018-09-26T20:30:24.068Z,82.00
2018-09-26T20:32:52.633Z,83.50
2018-09-26T20:35:21.210Z,81.10
2018-09-26T20:37:49.704Z,80.20
2018-09-26T20:40:18.213Z,80.00
2018-09-26T20:42:46.852Z,80.00
2018-09-26T20:45:15.398Z,79.60
2018-09-26T20:47:44.329Z,79.50
2018-09-26T20:50:12.581Z,79.00
2018-09-26T20:52:41.273Z,78.50
2018-09-26T20:55:09.954Z,78.80
2018-09-26T20:57:41.678Z,78.50
2018-09-26T21:00:10.171Z,78.00
2018-09-26T21:02:38.741Z,78.70
2018-09-26T21:05:07.461Z,78.20
2018-09-26T21:07:35.840Z,78.00
2018-09-26T21:10:04.458Z,77.80
2018-09-26T21:12:34.356Z,78.00
2018-09-26T21:15:02.711Z,78.70
2018-09-26T21:17:31.373Z,78.30
2018-09-26T21:19:59.984Z,78.00
2018-09-26T21:22:28.432Z,78.10
2018-09-26T21:24:57.157Z,78.40
2018-09-26T21:27:25.793Z,78.80
2018-09-26T21:29:54.332Z,78.90
2018-09-26T21:32:22.906Z,78.30
2018-09-26T21:34:51.730Z,78.30
2018-09-26T21:37:20.489Z,79.40
2018-09-26T21:39:49.113Z,79.50
2018-09-26T21:42:18.868Z,80.90
2018-09-26T21:44:47.550Z,79.50
2018-09-26T21:47:17.076Z,79.60
2018-09-26T21:49:45.806Z,78.90
2018-09-26T21:52:14.850Z,78.10
2018-09-26T21:54:43.153Z,79.10
2018-09-26T21:57:11.986Z,78.50
2018-09-26T21:59:41.522Z,78.80
2018-09-26T22:02:10.129Z,80.80
2018-09-26T22:04:38.705Z,81.20
2018-09-26T22:07:07.310Z,80.20
2018-09-26T22:09:36.090Z,80.10
2018-09-26T22:12:05.247Z,79.60
2018-09-26T22:14:34.365Z,78.70
2018-09-26T22:17:03.012Z,78.40
2018-09-26T22:19:31.982Z,79.00
2018-09-26T22:22:01.020Z,80.30
2018-09-26T22:24:30.683Z,81.00
2018-09-26T22:27:00.337Z,79.70
2018-09-26T22:29:29.124Z,81.30
2018-09-26T22:31:57.734Z,79.70
2018-09-26T22:34:26.326Z,79.80
2018-09-26T22:36:55.818Z,81.80
2018-09-26T22:39:25.000Z,83.20
2018-09-26T22:41:54.108Z,82.30
2018-09-26T22:44:22.672Z,82.60
2018-09-26T22:46:51.507Z,81.50
2018-09-26T22:49:20.093Z,79.80
2018-09-26T22:51:49.859Z,81.00
2018-09-26T22:54:19.136Z,81.30
2018-09-26T22:56:47.757Z,82.10
2018-09-26T22:59:16.388Z,81.60
2018-09-26T23:01:44.833Z,81.20
2018-09-26T23:04:13.476Z,80.30
2018-09-26T23:06:42.184Z,80.50
2018-09-26T23:09:11.756Z,82.60
2018-09-26T23:11:40.701Z,84.20
2018-09-26T23:14:09.037Z,84.20
2018-09-26T23:16:37.768Z,83.70
2018-09-26T23:19:06.471Z,84.00
2018-09-26T23:21:34.912Z,83.70
2018-09-26T23:24:03.539Z,83.80
2018-09-26T23:26:33.095Z,82.10
2018-09-26T23:29:02.964Z,82.50
2018-09-26T23:31:31.694Z,83.00
2018-09-26T23:34:01.258Z,82.60
2018-09-26T23:36:29.999Z,83.20
2018-09-26T23:38:59.112Z,84.20
2018-09-26T23:41:27.480Z,85.00
2018-09-26T23:43:56.141Z,82.70
2018-09-26T23:46:25.260Z,84.50
2018-09-26T23:48:53.493Z,83.60
2018-09-26T23:51:22.131Z,84.50
2018-09-26T23:53:50.863Z,83.40
2018-09-26T23:56:19.630Z,83.10
2018-09-26T23:58:48.157Z,83.40
